Time;durP1;ratioP1;P1;durP2;ratioP2;P2;SDS_P1;SDS_P2;PMS_P1;PMS_P2;Temp;Humidity;BMP_temperature;BMP_pressure;BME280_temperature;BME280_humidity;BME280_pressure;Samples;Min_cycle;Max_cycle;Signal;HPM_P1;HPM_P2
2023/10/05 00:02:56;;;;;;;9.15;1.10;;;13.80;99.90;;;;;;5060746;28;20079;-57
2023/10/05 00:05:26;;;;;;;5.90;1.40;;;13.80;99.90;;;;;;5065213;28;20072;-55
2023/10/05 00:07:52;;;;;;;3.92;0.82;;;13.80;99.90;;;;;;5048341;28;20086;-57
2023/10/05 00:10:17;;;;;;;12.20;1.95;;;13.80;99.90;;;;;;5052693;28;20037;-58
2023/10/05 00:12:47;;;;;;;7.15;1.98;;;13.80;99.90;;;;;;5054531;28;20059;-53
2023/10/05 00:15:14;;;;;;;7.88;1.38;;;13.80;99.90;;;;;;5058076;28;20037;-56
2023/10/05 00:17:41;;;;;;;6.05;1.05;;;13.80;99.90;;;;;;5059411;28;20048;-57
2023/10/05 00:20:33;;;;;;;6.60;1.40;;;13.80;99.90;;;;;;5063038;28;20688;-56
2023/10/05 00:23:01;;;;;;;9.90;1.70;;;13.80;99.90;;;;;;5061382;28;20036;-57
2023/10/05 00:25:29;;;;;;;12.93;1.17;;;13.80;99.90;;;;;;5063432;28;20096;-57
2023/10/05 00:27:56;;;;;;;6.90;1.05;;;13.80;99.90;;;;;;5061040;28;20251;-57
2023/10/05 00:30:21;;;;;;;6.93;1.48;;;13.80;99.90;;;;;;5055622;28;20033;-54
2023/10/05 00:32:48;;;;;;;6.10;0.93;;;13.80;99.90;;;;;;5051499;28;20063;-57
2023/10/05 00:37:43;;;;;;;8.65;1.30;;;13.80;99.90;;;;;;5057789;28;20056;-55
2023/10/05 00:40:11;;;;;;;11.43;1.73;;;13.80;99.90;;;;;;5054224;28;20049;-55
2023/10/05 00:42:38;;;;;;;7.43;1.00;;;13.80;99.90;;;;;;5054801;28;20055;-57
2023/10/05 00:45:06;;;;;;;6.55;1.35;;;13.80;99.90;;;;;;5055338;28;20060;-53
2023/10/05 00:47:32;;;;;;;6.93;1.33;;;13.80;99.90;;;;;;5056898;28;20071;-56
2023/10/05 00:49:58;;;;;;;;;;;13.80;99.90;;;;;;5059115;28;20037;-57
2023/10/05 00:52:24;;;;;;;11.57;1.63;;;13.80;99.90;;;;;;5058634;28;20419;-57
2023/10/05 00:54:52;;;;;;;;;;;13.80;99.90;;;;;;5061820;28;20094;-57
2023/10/05 00:57:19;;;;;;;12.02;1.52;;;13.80;99.90;;;;;;5061144;28;19983;-58
2023/10/05 00:59:47;;;;;;;11.27;2.00;;;13.70;99.90;;;;;;5060376;28;20040;-56
2023/10/05 01:02:16;;;;;;;5.30;1.45;;;13.70;99.90;;;;;;5059061;28;20080;-58
2023/10/05 01:12:36;;;;;;;;;;;13.80;99.90;;;;;;5056395;28;20037;-57
2023/10/05 01:15:04;;;;;;;11.50;1.77;;;13.80;99.90;;;;;;5057178;28;19917;-56
2023/10/05 01:17:30;;;;;;;6.03;1.15;;;13.80;99.90;;;;;;5059257;28;20094;-54
2023/10/05 01:20:07;;;;;;;7.55;1.25;;;13.80;99.90;;;;;;5058658;28;20453;-57
2023/10/05 01:22:36;;;;;;;5.40;1.30;;;13.80;99.90;;;;;;5059397;28;20052;-56
2023/10/05 01:25:04;;;;;;;6.40;1.30;;;13.90;99.90;;;;;;5056051;28;20070;-54
2023/10/05 01:27:33;;;;;;;7.15;1.25;;;13.90;99.90;;;;;;5059902;28;20033;-54
2023/10/05 01:30:00;;;;;;;8.57;1.30;;;13.90;99.90;;;;;;5062079;28;20076;-55
2023/10/05 01:32:26;;;;;;;9.10;1.80;;;13.90;99.90;;;;;;5060752;28;20403;-54
2023/10/05 01:34:52;;;;;;;8.68;1.88;;;13.90;99.90;;;;;;5062836;28;20037;-57
2023/10/05 01:37:22;;;;;;;12.10;2.35;;;13.90;99.90;;;;;;5061694;28;20029;-55
2023/10/05 01:39:48;;;;;;;7.97;1.25;;;13.90;99.90;;;;;;5059870;28;20891;-56
2023/10/05 01:42:14;;;;;;;11.93;1.90;;;13.90;99.90;;;;;;5060448;28;20048;-57
2023/10/05 01:44:47;;;;;;;4.00;1.00;;;13.90;99.90;;;;;;5063080;28;20055;-57
2023/10/05 01:47:16;;;;;;;7.25;2.03;;;14.00;99.90;;;;;;5056365;28;20041;-56
2023/10/05 01:49:46;;;;;;;6.05;1.48;;;14.00;99.90;;;;;;5055025;28;20048;-57
2023/10/05 01:52:16;;;;;;;16.25;1.90;;;14.00;99.90;;;;;;5057362;28;20086;-58
2023/10/05 01:54:43;;;;;;;11.60;1.08;;;14.00;99.90;;;;;;5057633;28;20056;-56
2023/10/05 01:57:09;;;;;;;7.50;1.45;;;14.00;99.90;;;;;;5058139;28;20059;-58
2023/10/05 01:59:37;;;;;;;7.20;1.58;;;14.00;99.90;;;;;;5061214;28;20036;-54
2023/10/05 02:02:10;;;;;;;6.18;0.90;;;14.00;99.90;;;;;;5055578;28;20048;-56
2023/10/05 02:04:39;;;;;;;7.35;1.48;;;14.00;99.90;;;;;;5056094;28;20092;-56
2023/10/05 02:07:05;;;;;;;6.10;0.93;;;14.00;99.90;;;;;;5056606;28;20086;-56
2023/10/05 02:09:31;;;;;;;10.07;1.35;;;14.00;99.90;;;;;;5059464;28;20060;-56
2023/10/05 02:12:01;;;;;;;9.73;1.65;;;14.00;99.90;;;;;;5057713;28;20043;-55
2023/10/05 02:14:30;;;;;;;6.60;1.48;;;13.90;99.90;;;;;;5060228;28;20043;-57
2023/10/05 02:16:55;;;;;;;6.82;1.20;;;13.90;99.90;;;;;;5060234;28;21085;-57
2023/10/05 02:19:22;;;;;;;3.88;1.10;;;13.90;99.90;;;;;;5064688;28;20044;-58
2023/10/05 02:21:51;;;;;;;12.48;2.25;;;13.90;99.90;;;;;;5069028;28;20051;-58
2023/10/05 02:24:17;;;;;;;5.45;1.30;;;13.90;99.90;;;;;;5064278;28;20045;-56
2023/10/05 02:29:30;;;;;;;7.10;1.63;;;13.90;99.90;;;;;;5068273;28;20083;-57
2023/10/05 02:34:21;;;;;;;10.63;1.98;;;13.90;99.90;;;;;;5063826;28;20040;-56
2023/10/05 02:36:47;;;;;;;11.15;1.42;;;13.90;99.90;;;;;;5068855;28;20107;-56
2023/10/05 02:39:14;;;;;;;11.93;1.95;;;13.90;99.90;;;;;;5064389;28;20453;-56
2023/10/05 02:41:40;;;;;;;11.40;2.50;;;13.80;99.90;;;;;;5065314;28;20037;-57
2023/10/05 02:46:47;;;;;;;6.53;1.80;;;13.80;99.90;;;;;;5068474;28;20050;-56
2023/10/05 02:49:18;;;;;;;12.77;2.33;;;13.80;99.90;;;;;;5067392;28;20531;-55
2023/10/05 02:51:44;;;;;;;6.20;1.45;;;13.80;99.90;;;;;;5066347;28;20044;-56
2023/10/05 02:54:12;;;;;;;9.05;1.55;;;13.80;99.90;;;;;;5064858;28;20059;-57
2023/10/05 02:56:40;;;;;;;8.18;1.77;;;13.80;99.90;;;;;;5064005;28;20029;-58
2023/10/05 02:59:15;;;;;;;10.10;1.60;;;13.80;99.90;;;;;;5063660;28;20500;-57
2023/10/05 03:01:42;;;;;;;10.07;1.90;;;13.80;99.90;;;;;;5067353;28;20388;-58
2023/10/05 03:06:41;;;;;;;8.40;1.35;;;13.80;99.90;;;;;;5061196;28;20048;-57
2023/10/05 03:09:07;;;;;;;;;;;13.80;99.90;;;;;;5064720;28;20036;-58
2023/10/05 03:11:41;;;;;;;13.52;2.13;;;13.80;99.90;;;;;;5067009;28;19928;-57
2023/10/05 03:14:11;;;;;;;4.80;1.25;;;13.80;99.90;;;;;;5065493;28;20514;-58
2023/10/05 03:16:48;;;;;;;7.50;1.63;;;13.80;99.90;;;;;;5065542;28;20495;-56
2023/10/05 03:19:21;;;;;;;5.90;1.60;;;13.80;99.90;;;;;;5066658;28;20538;-57
2023/10/05 03:21:50;;;;;;;4.72;1.63;;;13.90;99.90;;;;;;5064658;28;20166;-58
2023/10/05 03:24:19;;;;;;;12.25;1.40;;;13.90;99.90;;;;;;5064873;28;20036;-58
2023/10/05 03:26:47;;;;;;;12.60;2.20;;;13.90;99.90;;;;;;5065135;28;20036;-57
2023/10/05 03:29:12;;;;;;;10.88;1.88;;;13.80;99.90;;;;;;5065616;28;20049;-57
2023/10/05 03:31:52;;;;;;;6.07;1.58;;;13.90;99.90;;;;;;5067494;28;20052;-58
2023/10/05 03:34:18;;;;;;;10.55;2.10;;;13.90;99.90;;;;;;5063248;28;20139;-57
2023/10/05 03:36:47;;;;;;;11.38;2.63;;;13.90;99.90;;;;;;5066597;28;20131;-57
2023/10/05 03:39:13;;;;;;;8.52;2.00;;;13.90;99.90;;;;;;5064009;28;20108;-58
2023/10/05 03:41:39;;;;;;;14.20;2.05;;;13.90;99.90;;;;;;5062950;28;20036;-58
2023/10/05 03:44:07;;;;;;;8.65;1.85;;;13.90;99.90;;;;;;5064062;28;21212;-57
2023/10/05 03:46:34;;;;;;;8.27;1.88;;;13.90;99.90;;;;;;5065495;28;20715;-57
2023/10/05 03:49:01;;;;;;;8.85;2.03;;;14.00;99.90;;;;;;5066354;28;20126;-58
2023/10/05 03:51:28;;;;;;;13.23;2.80;;;13.90;99.90;;;;;;5065321;28;20040;-57
2023/10/05 03:53:54;;;;;;;14.07;2.10;;;14.00;99.90;;;;;;5060041;28;20041;-57
2023/10/05 03:56:23;;;;;;;17.70;2.55;;;14.00;99.90;;;;;;5063669;28;20094;-57
2023/10/05 03:58:49;;;;;;;9.23;2.17;;;14.00;99.90;;;;;;5064407;28;20044;-58
2023/10/05 04:01:17;;;;;;;16.35;1.48;;;14.00;99.90;;;;;;5063645;28;20048;-58
2023/10/05 04:03:46;;;;;;;12.02;1.75;;;14.00;99.90;;;;;;5063228;28;20518;-57
2023/10/05 04:06:24;;;;;;;15.70;2.42;;;14.00;99.90;;;;;;5062260;28;20037;-57
2023/10/05 04:09:03;;;;;;;10.60;1.63;;;14.00;99.90;;;;;;5062455;28;20040;-56
2023/10/05 04:11:33;;;;;;;8.48;1.88;;;14.00;99.90;;;;;;5064846;28;20037;-58
2023/10/05 04:14:01;;;;;;;11.45;1.80;;;14.00;99.90;;;;;;5068195;28;20047;-58
2023/10/05 04:16:28;;;;;;;11.77;2.35;;;14.00;99.90;;;;;;5067066;28;20082;-57
2023/10/05 04:18:59;;;;;;;8.30;1.42;;;14.00;99.90;;;;;;5062769;28;20415;-57
2023/10/05 04:21:25;;;;;;;12.40;2.25;;;14.00;99.90;;;;;;5060929;28;20069;-57
2023/10/05 04:23:58;;;;;;;11.75;1.92;;;14.00;99.90;;;;;;5063903;28;20488;-58
2023/10/05 04:26:32;;;;;;;7.95;1.50;;;14.00;99.90;;;;;;5062108;28;20453;-58
2023/10/05 04:29:02;;;;;;;10.68;1.98;;;14.00;99.90;;;;;;5065354;28;20119;-58
2023/10/05 04:31:28;;;;;;;10.52;1.90;;;14.00;99.90;;;;;;5060573;28;20072;-58
2023/10/05 04:33:56;;;;;;;10.13;2.20;;;14.00;99.90;;;;;;5065804;28;20064;-57
2023/10/05 04:36:25;;;;;;;13.20;2.55;;;14.10;99.90;;;;;;5060624;28;20479;-57
2023/10/05 04:38:53;;;;;;;10.35;1.80;;;14.10;99.90;;;;;;5064775;28;20120;-57
2023/10/05 04:41:34;;;;;;;6.28;1.90;;;14.00;99.90;;;;;;5066132;28;20032;-57
2023/10/05 04:44:00;;;;;;;7.35;1.83;;;14.00;99.90;;;;;;5068470;28;20503;-56
2023/10/05 04:46:28;;;;;;;12.10;2.25;;;14.10;99.90;;;;;;5064891;28;20036;-57
2023/10/05 04:49:12;;;;;;;10.85;2.13;;;14.00;99.90;;;;;;5071291;28;20541;-56
2023/10/05 04:51:41;;;;;;;8.88;1.65;;;14.00;99.90;;;;;;5065974;28;20053;-57
2023/10/05 04:54:11;;;;;;;8.15;1.23;;;14.00;99.90;;;;;;5072813;28;20647;-57
2023/10/05 04:56:43;;;;;;;12.48;2.20;;;14.00;99.90;;;;;;5064704;28;20040;-56
2023/10/05 05:01:56;;;;;;;11.18;1.73;;;14.00;99.90;;;;;;5067357;28;20123;-56
2023/10/05 05:07:13;;;;;;;10.60;2.30;;;13.90;99.90;;;;;;5031052;28;20400;-55
2023/10/05 05:09:43;;;;;;;12.40;2.28;;;13.90;99.90;;;;;;5068929;28;20123;-56
2023/10/05 05:12:17;;;;;;;10.73;2.28;;;13.90;99.90;;;;;;5067601;28;20393;-57
2023/10/05 05:14:53;;;;;;;11.25;1.77;;;13.90;99.90;;;;;;5067712;28;20037;-56
2023/10/05 05:17:22;;;;;;;10.60;2.00;;;13.90;99.90;;;;;;5068255;28;20384;-52
2023/10/05 05:19:48;;;;;;;13.32;2.55;;;13.80;99.90;;;;;;5064295;28;20037;-56
2023/10/05 05:22:14;;;;;;;23.15;3.42;;;13.80;99.90;;;;;;5067208;28;20390;-57
2023/10/05 05:24:41;;;;;;;7.18;1.77;;;13.80;99.90;;;;;;5064188;28;20036;-56
2023/10/05 05:29:38;;;;;;;10.20;1.73;;;13.80;99.90;;;;;;5068774;28;20044;-55
2023/10/05 05:32:11;;;;;;;11.52;1.85;;;13.80;99.90;;;;;;5065709;28;20078;-56
2023/10/05 05:34:37;;;;;;;12.48;1.55;;;13.70;99.90;;;;;;5069571;28;20068;-55
2023/10/05 05:37:04;;;;;;;9.77;1.58;;;13.70;99.90;;;;;;5066337;28;20044;-56
2023/10/05 05:39:37;;;;;;;13.35;3.15;;;13.70;99.90;;;;;;5068798;28;20540;-57
2023/10/05 05:42:06;;;;;;;15.40;2.55;;;13.70;99.90;;;;;;5063037;28;20043;-56
2023/10/05 05:44:34;;;;;;;10.18;2.47;;;13.70;99.90;;;;;;5065451;28;20121;-56
2023/10/05 05:47:09;;;;;;;11.32;2.22;;;13.70;99.90;;;;;;5068609;28;20047;-54
2023/10/05 05:49:38;;;;;;;10.68;2.67;;;13.70;99.90;;;;;;5036916;28;20398;-58
2023/10/05 05:52:05;;;;;;;16.20;1.63;;;13.60;99.90;;;;;;5054852;28;20140;-54
2023/10/05 05:54:32;;;;;;;7.85;1.67;;;13.60;99.90;;;;;;5064513;28;20037;-54
2023/10/05 05:56:58;;;;;;;10.13;2.78;;;13.60;99.90;;;;;;5063636;28;20507;-56
2023/10/05 05:59:23;;;;;;;12.90;2.00;;;13.70;99.90;;;;;;5068526;28;20082;-56
2023/10/05 06:01:52;;;;;;;14.93;2.05;;;13.70;99.90;;;;;;5066717;28;20044;-57
2023/10/05 06:04:18;;;;;;;9.77;2.55;;;13.70;99.90;;;;;;5070164;28;20045;-56
2023/10/05 06:06:44;;;;;;;13.27;2.58;;;13.60;99.90;;;;;;5064366;28;20045;-58
2023/10/05 06:09:13;;;;;;;14.30;2.75;;;13.70;99.90;;;;;;5066144;28;20124;-53
2023/10/05 06:11:40;;;;;;;5.40;1.50;;;13.60;99.90;;;;;;5059268;28;20037;-54
2023/10/05 06:14:06;;;;;;;11.82;2.47;;;13.60;99.90;;;;;;5061977;28;20453;-54
2023/10/05 06:16:33;;;;;;;14.98;2.20;;;13.70;99.90;;;;;;5059401;28;20029;-57
2023/10/05 06:19:00;;;;;;;9.30;1.95;;;13.70;99.90;;;;;;5069411;28;20045;-54
2023/10/05 06:21:26;;;;;;;10.80;2.88;;;13.70;99.90;;;;;;5067946;28;20408;-58
2023/10/05 06:23:51;;;;;;;10.90;2.40;;;13.80;99.90;;;;;;5069376;28;20040;-56
2023/10/05 06:26:17;;;;;;;23.48;3.58;;;13.80;99.90;;;;;;5068192;28;20043;-56
2023/10/05 06:28:44;;;;;;;14.00;2.50;;;13.80;99.90;;;;;;5071654;28;20040;-57
2023/10/05 06:31:12;;;;;;;9.48;2.03;;;13.80;99.90;;;;;;5066754;28;20419;-53
2023/10/05 06:33:41;;;;;;;12.45;2.42;;;13.80;99.90;;;;;;5068992;28;20040;-57
2023/10/05 06:36:07;;;;;;;10.48;2.08;;;13.80;99.90;;;;;;5070892;28;20051;-57
2023/10/05 06:38:33;;;;;;;14.18;2.33;;;13.90;99.90;;;;;;5064207;28;20033;-56
2023/10/05 06:40:59;;;;;;;6.68;2.00;;;13.90;99.90;;;;;;5068214;28;20082;-55
2023/10/05 06:43:26;;;;;;;8.23;2.05;;;13.90;99.90;;;;;;5065653;28;20183;-54
2023/10/05 06:45:52;;;;;;;9.10;2.25;;;13.90;99.90;;;;;;5069416;28;20044;-57
2023/10/05 06:48:18;;;;;;;13.20;3.05;;;13.90;99.90;;;;;;5065186;28;20040;-55
2023/10/05 06:50:44;;;;;;;;;;;13.90;99.90;;;;;;5068122;28;20045;-54
2023/10/05 06:53:11;;;;;;;10.10;2.38;;;13.90;99.90;;;;;;5050902;28;19994;-55
2023/10/05 06:55:38;;;;;;;18.27;3.15;;;13.90;99.90;;;;;;5059278;28;20032;-54
2023/10/05 06:58:04;;;;;;;11.68;2.00;;;13.90;99.90;;;;;;5054186;28;20029;-58
2023/10/05 07:00:30;;;;;;;6.97;2.47;;;13.90;99.90;;;;;;5046184;28;20128;-57
2023/10/05 07:02:58;;;;;;;14.52;3.05;;;13.90;99.90;;;;;;5040182;28;20045;-55
2023/10/05 07:05:27;;;;;;;12.30;2.47;;;14.00;99.90;;;;;;5054685;28;20074;-57
2023/10/05 07:07:53;;;;;;;12.00;2.45;;;14.00;99.90;;;;;;5059253;28;20068;-57
2023/10/05 07:10:19;;;;;;;7.00;2.40;;;14.00;99.90;;;;;;5060694;28;20399;-54
2023/10/05 07:12:46;;;;;;;9.55;2.40;;;14.10;99.90;;;;;;5061328;28;20039;-53
2023/10/05 07:15:13;;;;;;;7.75;2.35;;;14.10;99.90;;;;;;5058333;28;20120;-59
2023/10/05 07:17:40;;;;;;;9.05;2.35;;;14.10;99.90;;;;;;5063069;28;20075;-55
2023/10/05 07:20:11;;;;;;;9.88;3.05;;;14.10;99.90;;;;;;5066202;28;20457;-58
2023/10/05 07:22:40;;;;;;;8.02;3.05;;;14.20;99.90;;;;;;5055287;28;20044;-57
2023/10/05 07:25:08;;;;;;;9.15;2.72;;;14.20;99.90;;;;;;5061661;28;20087;-55
2023/10/05 07:27:34;;;;;;;13.20;3.17;;;14.20;99.90;;;;;;5056666;28;20048;-54
2023/10/05 07:30:04;;;;;;;9.50;2.63;;;14.30;99.90;;;;;;5055804;28;20463;-58
2023/10/05 07:32:34;;;;;;;12.40;3.15;;;14.30;99.90;;;;;;5063242;28;20559;-56
2023/10/05 07:35:00;;;;;;;10.95;3.10;;;14.30;99.90;;;;;;5060766;28;20207;-59
2023/10/05 07:37:26;;;;;;;13.20;2.58;;;14.40;99.90;;;;;;5052054;28;20029;-57
2023/10/05 07:39:52;;;;;;;14.93;2.55;;;14.40;99.90;;;;;;5066785;28;20037;-57
2023/10/05 07:42:18;;;;;;;8.00;2.08;;;14.40;99.90;;;;;;5067810;28;20036;-57
2023/10/05 07:44:44;;;;;;;12.73;2.58;;;14.40;99.90;;;;;;5064747;28;20035;-57
2023/10/05 07:47:13;;;;;;;12.63;2.72;;;14.50;99.90;;;;;;5057763;28;20094;-56
2023/10/05 07:49:41;;;;;;;8.88;2.88;;;14.50;99.90;;;;;;5053141;28;20036;-56
2023/10/05 07:52:09;;;;;;;13.38;2.50;;;14.50;99.90;;;;;;5049182;28;20076;-58
2023/10/05 07:54:35;;;;;;;11.00;2.92;;;14.50;99.90;;;;;;5051499;28;20040;-58
2023/10/05 07:57:02;;;;;;;;;;;14.50;99.90;;;;;;5059944;28;20036;-58
2023/10/05 07:59:28;;;;;;;14.40;2.57;;;14.50;99.90;;;;;;5057274;28;19916;-56
2023/10/05 08:01:55;;;;;;;15.23;2.55;;;14.60;99.90;;;;;;5052466;28;20040;-58
2023/10/05 08:04:22;;;;;;;13.05;2.95;;;14.60;99.90;;;;;;5053306;28;20128;-53
2023/10/05 08:06:48;;;;;;;9.25;2.17;;;14.70;99.90;;;;;;5051170;28;20044;-57
2023/10/05 08:09:15;;;;;;;11.65;2.40;;;14.80;99.90;;;;;;5065348;28;20052;-56
2023/10/05 08:11:44;;;;;;;15.20;3.38;;;14.80;99.90;;;;;;5064925;28;20086;-57
2023/10/05 08:14:11;;;;;;;15.13;2.53;;;14.90;99.90;;;;;;5047553;28;20527;-57
2023/10/05 08:16:37;;;;;;;11.55;2.47;;;14.90;99.90;;;;;;5050558;28;20408;-55
2023/10/05 08:19:05;;;;;;;15.07;2.65;;;15.00;99.90;;;;;;5063661;28;20043;-57
2023/10/05 08:21:31;;;;;;;10.50;2.22;;;15.10;99.90;;;;;;5054509;28;20048;-56
2023/10/05 08:23:57;;;;;;;15.77;3.10;;;15.10;99.90;;;;;;5055365;28;20094;-57
2023/10/05 08:26:24;;;;;;;10.52;2.95;;;15.20;99.90;;;;;;5063037;28;20072;-57
2023/10/05 08:28:49;;;;;;;11.25;2.65;;;15.20;99.90;;;;;;5066004;28;20112;-54
2023/10/05 08:31:22;;;;;;;11.38;2.85;;;15.30;99.90;;;;;;5060490;28;20490;-56
2023/10/05 08:33:53;;;;;;;9.23;2.45;;;15.40;99.90;;;;;;5056114;28;20102;-54
2023/10/05 08:36:22;;;;;;;10.90;1.98;;;15.40;99.90;;;;;;5057467;28;20041;-55
2023/10/05 08:38:48;;;;;;;11.55;2.30;;;15.50;99.90;;;;;;5062091;28;20428;-55
2023/10/05 08:41:35;;;;;;;10.98;2.92;;;15.60;99.90;;;;;;5066311;28;20080;-56
2023/10/05 08:46:50;;;;;;;10.98;2.28;;;15.70;99.90;;;;;;5055535;28;20400;-54
2023/10/05 08:49:15;;;;;;;18.50;2.78;;;15.80;99.90;;;;;;5053073;28;20052;-55
2023/10/05 08:51:41;;;;;;;14.32;2.80;;;15.80;99.90;;;;;;5057427;28;20067;-53
2023/10/05 08:54:11;;;;;;;9.77;2.50;;;15.90;99.90;;;;;;5055125;28;20060;-56
2023/10/05 08:56:40;;;;;;;13.05;3.15;;;15.90;99.90;;;;;;5054904;28;20039;-55
2023/10/05 08:59:07;;;;;;;13.23;2.83;;;15.90;99.90;;;;;;5055469;28;20068;-55
2023/10/05 09:01:34;;;;;;;8.73;2.20;;;15.90;99.90;;;;;;5056037;28;20091;-56
2023/10/05 09:06:52;;;;;;;11.15;2.50;;;15.80;99.90;;;;;;5066234;28;20068;-57
2023/10/05 09:09:54;;;;;;;9.20;3.13;;;15.80;99.90;;;;;;5054980;28;20601;-53
2023/10/05 09:12:46;;;;;;;11.75;2.53;;;15.80;99.90;;;;;;5056625;28;20064;-57
2023/10/05 09:15:22;;;;;;;12.60;2.72;;;15.80;99.90;;;;;;5054638;28;20056;-56
2023/10/05 09:17:58;;;;;;;16.17;2.67;;;15.80;99.90;;;;;;5040980;28;20435;-57
2023/10/05 09:20:23;;;;;;;9.82;2.28;;;15.90;99.90;;;;;;5056383;28;20507;-54
2023/10/05 09:22:51;;;;;;;6.78;1.63;;;15.90;99.90;;;;;;5061235;28;20060;-56
2023/10/05 09:25:17;;;;;;;9.63;2.38;;;15.90;99.90;;;;;;5049848;28;20067;-53
2023/10/05 09:27:50;;;;;;;9.32;2.60;;;16.00;99.90;;;;;;5061721;28;20067;-53
2023/10/05 09:30:20;;;;;;;10.80;1.73;;;15.90;99.90;;;;;;5061234;28;20169;-56
2023/10/05 09:32:46;;;;;;;9.07;2.13;;;16.00;99.90;;;;;;5071485;28;20067;-56
2023/10/05 09:35:28;;;;;;;10.00;2.45;;;16.00;99.90;;;;;;5070073;28;20040;-55
2023/10/05 09:37:58;;;;;;;12.40;2.80;;;16.10;99.90;;;;;;5064400;28;20051;-56
2023/10/05 09:40:28;;;;;;;14.18;3.22;;;16.20;99.90;;;;;;5069223;28;20037;-55
2023/10/05 09:42:55;;;;;;;14.80;2.78;;;16.20;99.90;;;;;;5068766;28;20174;-53
2023/10/05 09:45:23;;;;;;;12.13;2.30;;;16.20;99.90;;;;;;5069540;28;20450;-56
2023/10/05 09:47:53;;;;;;;13.02;3.08;;;16.20;99.90;;;;;;5069291;28;20055;-54
2023/10/05 09:50:21;;;;;;;8.40;2.17;;;16.20;99.90;;;;;;5067084;28;20047;-56
2023/10/05 09:52:48;;;;;;;11.07;2.35;;;16.30;99.90;;;;;;5066869;28;20040;-56
2023/10/05 09:55:17;;;;;;;9.93;2.38;;;16.30;99.90;;;;;;5069501;28;20044;-55
2023/10/05 09:57:46;;;;;;;13.15;3.13;;;16.40;99.90;;;;;;5060254;28;20028;-56
2023/10/05 10:01:10;;;;;;;10.27;2.83;;;16.50;99.90;;;;;;5070766;28;20044;-56
2023/10/05 10:03:01;;;;;;;14.23;3.00;;;16.50;99.90;;;;;;5057677;28;20403;-56
2023/10/05 10:05:42;;;;;;;8.70;2.28;;;16.50;99.90;;;;;;5066243;28;20228;-56
2023/10/05 10:08:13;;;;;;;17.20;2.65;;;16.40;99.90;;;;;;5063862;28;20143;-56
2023/10/05 10:10:43;;;;;;;11.68;2.45;;;16.40;99.90;;;;;;5063120;28;20044;-54
2023/10/05 10:13:12;;;;;;;15.48;3.38;;;16.50;99.90;;;;;;5062872;28;20159;-52
2023/10/05 10:15:46;;;;;;;10.90;2.35;;;16.60;99.90;;;;;;5070782;28;20025;-56
2023/10/05 10:18:15;;;;;;;29.55;4.30;;;16.60;99.90;;;;;;5059075;28;20036;-54
2023/10/05 10:20:53;;;;;;;11.80;2.85;;;16.80;99.90;;;;;;5056241;28;20626;-55
2023/10/05 10:23:35;;;;;;;9.75;1.80;;;16.90;99.90;;;;;;5064360;28;20047;-55
2023/10/05 10:26:17;;;;;;;14.77;2.58;;;17.10;99.90;;;;;;5051887;28;20110;-55
2023/10/05 10:31:34;;;;;;;;;;;17.20;99.90;;;;;;5060025;28;20461;-56
2023/10/05 10:34:33;;;;;;;16.88;3.25;;;17.20;99.90;;;;;;5049780;28;20007;-53
2023/10/05 10:36:59;;;;;;;11.93;2.40;;;17.10;99.90;;;;;;5063937;28;20036;-55
2023/10/05 10:39:27;;;;;;;9.02;2.30;;;17.00;99.90;;;;;;5057316;28;20091;-56
2023/10/05 10:42:07;;;;;;;10.00;2.33;;;17.00;99.90;;;;;;5056617;28;20052;-55
2023/10/05 10:47:16;;;;;;;14.55;2.03;;;17.00;99.90;;;;;;5060973;28;20041;-55
2023/10/05 10:50:10;;;;;;;12.98;2.72;;;17.00;99.90;;;;;;5064904;28;20039;-56
2023/10/05 10:52:36;;;;;;;9.48;1.90;;;17.00;99.90;;;;;;5056622;28;20052;-56
2023/10/05 10:55:03;;;;;;;13.35;2.92;;;17.00;99.90;;;;;;5059474;28;20067;-56
2023/10/05 10:57:29;;;;;;;14.05;2.53;;;17.10;99.90;;;;;;5049347;28;20043;-55
2023/10/05 11:02:44;;;;;;;14.52;2.35;;;17.30;99.90;;;;;;5020621;28;20147;-55
2023/10/05 11:05:15;;;;;;;17.67;4.05;;;17.40;99.90;;;;;;5054226;28;20751;-55
2023/10/05 11:07:44;;;;;;;15.27;2.45;;;17.40;99.90;;;;;;5053098;28;20059;-56
2023/10/05 11:10:19;;;;;;;8.18;2.53;;;17.60;99.90;;;;;;5059223;28;20408;-56
2023/10/05 11:12:57;;;;;;;12.80;2.17;;;17.80;99.90;;;;;;5060504;28;20580;-56
2023/10/05 11:15:30;;;;;;;15.38;3.05;;;17.90;99.90;;;;;;5059442;28;20123;-56
2023/10/05 11:17:59;;;;;;;13.02;1.90;;;18.10;99.90;;;;;;5058327;28;20040;-56
2023/10/05 11:20:28;;;;;;;6.38;2.15;;;18.30;99.90;;;;;;5049530;28;20063;-53
2023/10/05 11:23:01;;;;;;;11.02;1.85;;;18.40;99.90;;;;;;5065061;28;20106;-54
2023/10/05 11:25:35;;;;;;;11.27;2.03;;;18.50;99.90;;;;;;5055833;28;20403;-56
2023/10/05 11:28:07;;;;;;;10.85;2.60;;;18.60;99.90;;;;;;5063725;28;20062;-55
2023/10/05 11:30:47;;;;;;;13.00;2.63;;;18.60;99.90;;;;;;5066265;28;20214;-56
2023/10/05 11:33:15;;;;;;;21.17;2.78;;;18.70;99.90;;;;;;5063279;28;20044;-57
2023/10/05 11:35:48;;;;;;;9.75;2.03;;;18.70;99.90;;;;;;5060930;28;20033;-55
2023/10/05 11:38:16;;;;;;;7.40;1.77;;;18.70;99.90;;;;;;5056980;28;20078;-56
2023/10/05 11:40:49;;;;;;;11.75;2.20;;;18.70;99.90;;;;;;5058699;28;20092;-57
2023/10/05 11:43:16;;;;;;;11.93;2.10;;;18.70;99.90;;;;;;5057179;28;20045;-56
2023/10/05 11:46:17;;;;;;;11.50;2.45;;;18.70;99.90;;;;;;5065649;28;20051;-55
2023/10/05 11:48:50;;;;;;;10.15;2.28;;;18.70;99.90;;;;;;5069148;28;20111;-56
2023/10/05 11:51:19;;;;;;;13.65;2.75;;;18.80;99.90;;;;;;5069081;28;20051;-55
2023/10/05 11:53:46;;;;;;;9.75;2.67;;;18.80;99.90;;;;;;5069361;28;20511;-56
2023/10/05 11:56:17;;;;;;;10.70;2.25;;;18.90;99.90;;;;;;5069299;28;20036;-56
2023/10/05 11:58:47;;;;;;;13.52;1.92;;;18.90;99.90;;;;;;5068810;28;20045;-56
2023/10/05 12:01:20;;;;;;;8.02;2.15;;;18.90;99.90;;;;;;5065359;28;20324;-56
2023/10/05 12:03:47;;;;;;;13.82;1.90;;;18.80;99.90;;;;;;5069286;28;20114;-55
2023/10/05 12:06:15;;;;;;;10.52;2.00;;;18.70;99.90;;;;;;5069306;28;20045;-57
2023/10/05 12:08:46;;;;;;;12.13;2.60;;;18.80;99.90;;;;;;5069250;28;20044;-55
2023/10/05 12:11:13;;;;;;;9.23;1.58;;;18.90;99.90;;;;;;5062806;28;20045;-56
2023/10/05 12:13:39;;;;;;;14.35;2.00;;;18.90;99.90;;;;;;5067706;28;20115;-56
2023/10/05 12:16:11;;;;;;;10.60;2.50;;;19.00;99.90;;;;;;5065244;28;20052;-55
2023/10/05 12:18:38;;;;;;;15.35;3.20;;;19.00;99.90;;;;;;5059158;28;20041;-56
2023/10/05 12:21:04;;;;;;;12.32;3.42;;;19.10;99.90;;;;;;5058784;28;20194;-56
2023/10/05 12:23:29;;;;;;;14.35;3.38;;;19.10;99.90;;;;;;5060883;28;20112;-56
2023/10/05 12:25:55;;;;;;;;;;;19.10;99.90;;;;;;5057107;28;20389;-54
2023/10/05 12:28:23;;;;;;;13.27;2.83;;;19.10;99.90;;;;;;5054722;28;19923;-56
2023/10/05 12:30:49;;;;;;;8.90;1.80;;;19.10;99.90;;;;;;5058984;28;20033;-53
2023/10/05 12:33:15;;;;;;;39.67;9.30;;;19.20;99.90;;;;;;5057925;28;20037;-56
2023/10/05 12:35:43;;;;;;;12.38;2.45;;;19.20;99.90;;;;;;5056131;28;20036;-55
2023/10/05 12:38:09;;;;;;;28.08;7.55;;;19.20;99.90;;;;;;5041792;28;20033;-57
2023/10/05 12:40:41;;;;;;;10.48;2.15;;;19.20;99.90;;;;;;5054319;28;20136;-52
2023/10/05 12:43:09;;;;;;;12.27;2.15;;;19.20;99.90;;;;;;5052724;28;20041;-55
2023/10/05 12:45:35;;;;;;;11.40;2.15;;;19.20;99.90;;;;;;5053323;28;20495;-56
2023/10/05 12:48:04;;;;;;;7.93;1.88;;;19.20;99.90;;;;;;5054514;28;20055;-56
2023/10/05 12:50:30;;;;;;;44.15;11.20;;;19.20;99.90;;;;;;5049502;28;20069;-55
2023/10/05 12:52:58;;;;;;;54.42;13.32;;;19.30;99.90;;;;;;5062495;28;20530;-54
2023/10/05 12:55:29;;;;;;;40.13;9.77;;;19.40;99.90;;;;;;5053580;28;20040;-56
2023/10/05 12:57:55;;;;;;;11.55;2.05;;;19.40;99.90;;;;;;5061934;28;20051;-56
2023/10/05 13:00:25;;;;;;;15.48;2.38;;;19.40;99.90;;;;;;5061556;28;20043;-56
2023/10/05 13:03:00;;;;;;;9.98;1.80;;;19.40;99.90;;;;;;5051552;28;20041;-56
2023/10/05 13:05:31;;;;;;;12.18;2.30;;;19.30;99.90;;;;;;5065428;28;20051;-56
2023/10/05 13:08:01;;;;;;;11.57;3.00;;;19.20;99.90;;;;;;5058603;28;20055;-56
2023/10/05 13:10:30;;;;;;;9.98;1.73;;;19.20;99.90;;;;;;5052341;28;20485;-56
2023/10/05 13:13:00;;;;;;;6.53;1.35;;;19.10;99.90;;;;;;5062451;28;20091;-56
2023/10/05 13:15:32;;;;;;;11.00;2.50;;;19.10;99.90;;;;;;5062803;28;20063;-55
2023/10/05 13:18:15;;;;;;;8.73;2.17;;;19.10;99.90;;;;;;5060632;28;20048;-56
2023/10/05 13:20:42;;;;;;;11.85;1.80;;;19.10;99.90;;;;;;5063128;28;20068;-56
2023/10/05 13:23:10;;;;;;;16.45;2.70;;;19.20;99.90;;;;;;5064077;28;20044;-56
2023/10/05 13:25:36;;;;;;;11.05;1.92;;;19.10;99.90;;;;;;5058583;28;20040;-56
2023/10/05 13:28:04;;;;;;;8.20;2.03;;;19.00;99.90;;;;;;5064438;28;20403;-54
2023/10/05 13:30:40;;;;;;;10.75;2.03;;;18.90;99.90;;;;;;5058801;28;20080;-55
2023/10/05 13:33:13;;;;;;;;;;;19.00;99.90;;;;;;5055428;28;20039;-56
2023/10/05 13:35:42;;;;;;;7.78;1.13;;;18.90;99.90;;;;;;5065222;28;19947;-56
2023/10/05 13:38:12;;;;;;;10.40;1.45;;;18.90;99.90;;;;;;5050373;28;20075;-56